Aeroboteco Virtual Airlines! Uma nuvem a frente.



 INFORMAÇÕES METEOROLÓGICAS
METAR FOR KLGC
ADDS - METARS form results

(1135 UTC 26 May 2020)
Data provider http://aviationweather.gov/metar/data/
 
METAR text: KLGC 261115Z AUTO 00000KT 10SM SCT016 BKN075 OVC080 21/20 A3003 RMK AO2 T02080202
Conditions at: KLGC (LA GRANGE , GA, US) observed 1115 UTC 26 May 2020
Temperature: 20.8°C (69°F)
Dewpoint: 20.2°C (68°F) [RH = 96%]
Pressure (altimeter): 30.03 inches Hg (1017.0 mb)
Winds: calm
Visibility: 10 or more miles (16+ km)
Ceiling: 7500 feet AGL
Clouds: scattered clouds at 1600 feet AGL
broken clouds at 7500 feet AGL
overcast cloud deck at 8000 feet AGL
Weather: automated observation with no human augmentation;
there may or may not be significant weather present at this time

METAR text: KLGC 261055Z AUTO 00000KT 10SM SCT010 SCT018 OVC075 21/20 A3003 RMK AO2 T02080203
Conditions at: KLGC (LA GRANGE , GA, US) observed 1055 UTC 26 May 2020
Temperature: 20.8°C (69°F)
Dewpoint: 20.3°C (69°F) [RH = 97%]
Pressure (altimeter): 30.03 inches Hg (1017.0 mb)
Winds: calm
Visibility: 10 or more miles (16+ km)
Ceiling: 7500 feet AGL
Clouds: scattered clouds at 1000 feet AGL
scattered clouds at 1800 feet AGL
overcast cloud deck at 7500 feet AGL
Weather: automated observation with no human augmentation;
there may or may not be significant weather present at this time

 MAPA DO AEROPORTO

 INFORMAÇÕES DA PISTA
Pista 03 Tamanho da pista 5000 ft Largura da pista 100 ft
Elevação da pista 678 ft Ranhura da pista 0 ft Proa da pista 24
Pista 21 Tamanho da pista 5000 ft Largura da pista 100 ft
Elevação da pista 684 ft Ranhura da pista 0 ft Proa da pista 204
Pista 13 Tamanho da pista 5600 ft Largura da pista 150 ft
Elevação da pista 680 ft Ranhura da pista 0 ft Proa da pista 127
Pista 31 Tamanho da pista 5600 ft Largura da pista 150 ft
Elevação da pista 675 ft Ranhura da pista 0 ft Proa da pista 307

 FREQUÊNCIAS DO AEROPORTO
Tipo A/D Nome ATLANTA AP Frequência 125.5 MHZ
Tipo AWOS Nome AWOS 3 Frequência 126.325 MHZ
Tipo CLD Nome CLNC DEL Frequência 119.25 MHZ
Tipo RDO Nome MACON RDO Frequência 115.6 MHZ
Tipo UNIC Nome CTAF/UNICO Frequência 122.975 MHZ

 AUXÍLIOS DE NAVEGAÇÃO PRÓXIMOS AO AEROPORTO